Time;durP1;ratioP1;P1;durP2;ratioP2;P2;SDS_P1;SDS_P2;PMS_P1;PMS_P2;Temp;Humidity;BMP_temperature;BMP_pressure;BME280_temperature;BME280_humidity;BME280_pressure;Samples;Min_cycle;Max_cycle;Signal;HPM_P1;HPM_P2
2023/06/11 00:01:46;;;;;;;3.42;2.72;;;;;;;;;;5022268;28;20605;-51
2023/06/11 00:04:18;;;;;;;4.20;3.47;;;;;;;;;;5016299;28;20679;-51
2023/06/11 00:06:45;;;;;;;4.00;3.45;;;;;;;;;;5014771;28;20637;-51
2023/06/11 00:09:11;;;;;;;4.80;2.92;;;;;;;;;;5026329;28;20654;-51
2023/06/11 00:11:41;;;;;;;2.90;2.67;;;;;;;;;;5026475;28;20260;-52
2023/06/11 00:14:08;;;;;;;4.20;3.10;;;;;;;;;;5007197;28;20257;-51
2023/06/11 00:16:34;;;;;;;4.75;3.28;;;;;;;;;;5007642;28;20892;-52
2023/06/11 00:19:02;;;;;;;5.95;3.20;;;;;;;;;;5007988;28;20252;-53
2023/06/11 00:21:29;;;;;;;4.22;3.38;;;;;;;;;;5024462;28;20370;-53
2023/06/11 00:23:55;;;;;;;7.63;3.20;;;;;;;;;;5027544;28;20238;-50
2023/06/11 00:26:22;;;;;;;6.53;3.72;;;;;;;;;;5028305;28;20232;-55
2023/06/11 00:28:49;;;;;;;4.63;3.25;;;;;;;;;;5031186;28;20252;-51
2023/06/11 00:31:15;;;;;;;3.05;2.75;;;;;;;;;;5025789;28;20229;-52
2023/06/11 00:33:42;;;;;;;5.05;3.05;;;;;;;;;;5024600;28;20661;-51
2023/06/11 00:36:11;;;;;;;4.57;2.83;;;;;;;;;;5024683;28;20236;-51
2023/06/11 00:38:37;;;;;;;3.17;2.83;;;;;;;;;;5024196;28;20302;-51
2023/06/11 00:41:06;;;;;;;2.97;2.78;;;;;;;;;;5020806;28;20698;-51
2023/06/11 00:43:33;;;;;;;3.58;3.08;;;;;;;;;;5022315;28;20237;-52
2023/06/11 00:46:02;;;;;;;8.38;3.60;;;;;;;;;;5024235;28;20667;-51
2023/06/11 00:48:28;;;;;;;4.10;2.83;;;;;;;;;;5020852;28;20232;-51
2023/06/11 00:50:55;;;;;;;4.40;2.78;;;;;;;;;;5025337;28;20236;-52
2023/06/11 00:53:26;;;;;;;5.45;3.50;;;;;;;;;;5024542;28;20699;-52
2023/06/11 00:55:52;;;;;;;5.80;3.35;;;;;;;;;;5024025;28;20262;-52
2023/06/11 00:58:20;;;;;;;6.03;3.10;;;;;;;;;;5025057;28;20228;-52
2023/06/11 01:00:49;;;;;;;3.47;2.78;;;;;;;;;;5024969;28;20229;-50
2023/06/11 01:03:17;;;;;;;4.95;2.75;;;;;;;;;;5024307;28;20243;-52
2023/06/11 01:05:47;;;;;;;3.00;2.75;;;;;;;;;;5025704;28;20621;-51
2023/06/11 01:08:17;;;;;;;3.13;2.83;;;;;;;;;;5027602;28;20356;-53
2023/06/11 01:10:45;;;;;;;6.03;2.78;;;;;;;;;;5045923;28;20231;-52
2023/06/11 01:13:12;;;;;;;5.25;2.65;;;;;;;;;;5019097;28;20245;-51
2023/06/11 01:15:38;;;;;;;3.35;2.58;;;;;;;;;;5017346;28;20766;-51
2023/06/11 01:18:08;;;;;;;3.20;2.90;;;;;;;;;;5025745;28;20236;-53
2023/06/11 01:20:38;;;;;;;7.50;3.00;;;;;;;;;;5013585;28;20602;-53
2023/06/11 01:23:20;;;;;;;3.35;2.60;;;;;;;;;;5024163;28;20727;-52
2023/06/11 01:25:52;;;;;;;7.40;2.90;;;;;;;;;;5022844;28;20224;-53
2023/06/11 01:28:26;;;;;;;2.17;2.00;;;;;;;;;;4999436;28;20226;-52
2023/06/11 01:30:56;;;;;;;6.22;2.92;;;;;;;;;;5028225;28;20270;-50
2023/06/11 01:33:24;;;;;;;5.22;2.88;;;;;;;;;;5036886;28;20679;-52
2023/06/11 01:35:52;;;;;;;3.55;3.05;;;;;;;;;;5027109;28;20224;-52
2023/06/11 01:38:21;;;;;;;6.10;3.72;;;;;;;;;;5027042;28;20236;-53
2023/06/11 01:40:48;;;;;;;6.80;3.50;;;;;;;;;;5024821;28;20311;-50
2023/06/11 01:43:14;;;;;;;3.20;2.55;;;;;;;;;;5023231;28;20255;-53
2023/06/11 01:45:43;;;;;;;3.10;2.80;;;;;;;;;;5031937;28;20232;-52
2023/06/11 01:48:11;;;;;;;3.90;2.83;;;;;;;;;;5028257;28;20232;-52
2023/06/11 01:50:37;;;;;;;3.13;2.78;;;;;;;;;;5026248;28;20542;-52
2023/06/11 01:53:04;;;;;;;8.20;3.47;;;;;;;;;;5022242;28;20247;-53
2023/06/11 01:55:30;;;;;;;7.25;2.90;;;;;;;;;;5026189;28;20239;-52
2023/06/11 01:57:57;;;;;;;4.55;3.45;;;;;;;;;;5016994;28;20233;-51
2023/06/11 02:00:24;;;;;;;3.72;2.97;;;;;;;;;;5022178;28;20282;-52
2023/06/11 02:02:52;;;;;;;3.17;2.92;;;;;;;;;;5020451;28;20228;-51
2023/06/11 02:05:18;;;;;;;4.60;3.50;;;;;;;;;;5016905;28;20319;-51
2023/06/11 02:07:45;;;;;;;3.50;3.20;;;;;;;;;;5020980;28;20236;-52
2023/06/11 02:10:12;;;;;;;4.55;3.25;;;;;;;;;;5014971;28;20710;-51
2023/06/11 02:12:38;;;;;;;3.03;2.78;;;;;;;;;;5020050;28;20233;-54
2023/06/11 02:15:05;;;;;;;5.45;3.10;;;;;;;;;;5028327;28;20232;-51
2023/06/11 02:17:32;;;;;;;2.72;2.50;;;;;;;;;;5028422;28;20228;-50
2023/06/11 02:20:00;;;;;;;3.30;3.00;;;;;;;;;;5022769;28;20393;-51
2023/06/11 02:22:26;;;;;;;6.65;2.85;;;;;;;;;;5021086;28;20240;-51
2023/06/11 02:24:53;;;;;;;4.28;2.70;;;;;;;;;;5023560;28;20247;-54
2023/06/11 02:27:20;;;;;;;3.58;3.05;;;;;;;;;;5024554;28;20236;-51
2023/06/11 02:29:46;;;;;;;5.32;3.30;;;;;;;;;;5021990;28;20243;-53
2023/06/11 02:32:13;;;;;;;3.03;2.63;;;;;;;;;;5022382;28;20264;-51
2023/06/11 02:34:39;;;;;;;4.15;3.00;;;;;;;;;;5022541;28;20224;-51
2023/06/11 02:37:08;;;;;;;3.53;2.85;;;;;;;;;;5020631;28;20279;-52
2023/06/11 02:39:35;;;;;;;4.45;2.88;;;;;;;;;;5006803;28;20261;-51
2023/06/11 02:42:02;;;;;;;5.00;3.47;;;;;;;;;;5014052;28;20234;-50
2023/06/11 02:44:28;;;;;;;6.70;3.22;;;;;;;;;;5034304;28;20247;-55
2023/06/11 02:46:55;;;;;;;3.75;2.53;;;;;;;;;;5025347;28;20827;-50
2023/06/11 02:49:22;;;;;;;3.28;2.85;;;;;;;;;;5029266;28;20236;-54
2023/06/11 02:51:48;;;;;;;7.72;3.30;;;;;;;;;;5030440;28;20314;-52
2023/06/11 02:54:17;;;;;;;4.55;2.40;;;;;;;;;;5016049;28;20242;-50
2023/06/11 02:56:43;;;;;;;4.50;3.50;;;;;;;;;;5025719;28;20232;-52
2023/06/11 02:59:10;;;;;;;6.75;2.85;;;;;;;;;;5025594;28;20930;-51
2023/06/11 03:01:38;;;;;;;7.35;2.83;;;;;;;;;;5035752;28;20228;-52
2023/06/11 03:04:05;;;;;;;3.13;2.88;;;;;;;;;;5041279;28;20659;-51
2023/06/11 03:06:31;;;;;;;5.13;2.40;;;;;;;;;;5007293;28;20476;-51
2023/06/11 03:08:58;;;;;;;4.07;2.53;;;;;;;;;;5007584;28;20740;-52
2023/06/11 03:11:26;;;;;;;4.50;2.97;;;;;;;;;;5013892;28;20228;-53
2023/06/11 03:13:53;;;;;;;3.10;2.72;;;;;;;;;;5020406;28;20261;-51
2023/06/11 03:16:20;;;;;;;6.28;3.85;;;;;;;;;;5011476;28;20312;-50
2023/06/11 03:18:46;;;;;;;4.40;2.58;;;;;;;;;;5027611;28;20240;-52
2023/06/11 03:21:13;;;;;;;3.70;3.00;;;;;;;;;;5025229;28;20247;-52
2023/06/11 03:23:40;;;;;;;2.67;2.38;;;;;;;;;;5026816;28;20279;-52
2023/06/11 03:26:06;;;;;;;3.25;2.72;;;;;;;;;;5026503;28;20229;-52
2023/06/11 03:28:34;;;;;;;4.90;3.13;;;;;;;;;;5026914;28;20259;-52
2023/06/11 03:31:02;;;;;;;2.70;2.50;;;;;;;;;;5026054;28;20220;-52
2023/06/11 03:33:28;;;;;;;3.65;2.92;;;;;;;;;;5025235;28;20239;-52
2023/06/11 03:35:55;;;;;;;3.13;2.85;;;;;;;;;;5026669;28;20897;-53
2023/06/11 03:38:21;;;;;;;10.07;2.60;;;;;;;;;;5026529;28;20295;-53
2023/06/11 03:40:48;;;;;;;4.82;3.30;;;;;;;;;;5025836;28;20319;-52
2023/06/11 03:43:14;;;;;;;2.90;2.60;;;;;;;;;;5024556;28;20320;-51
2023/06/11 03:45:42;;;;;;;3.20;2.90;;;;;;;;;;5026147;28;20323;-52
2023/06/11 03:48:09;;;;;;;4.05;2.83;;;;;;;;;;5006976;28;20313;-53
2023/06/11 03:50:35;;;;;;;4.07;2.65;;;;;;;;;;5015635;28;20707;-53
2023/06/11 03:53:02;;;;;;;5.15;2.72;;;;;;;;;;5019828;28;20247;-50
2023/06/11 03:55:29;;;;;;;3.03;2.65;;;;;;;;;;5018786;28;20233;-51
2023/06/11 03:57:56;;;;;;;9.70;2.53;;;;;;;;;;5011529;28;20743;-53
2023/06/11 04:00:23;;;;;;;6.35;3.00;;;;;;;;;;5020728;28;20673;-51
2023/06/11 04:02:51;;;;;;;3.95;3.17;;;;;;;;;;5024502;28;20232;-51
2023/06/11 04:05:17;;;;;;;3.15;2.47;;;;;;;;;;5011391;28;20308;-51
2023/06/11 04:07:44;;;;;;;7.63;3.42;;;;;;;;;;5021218;28;20228;-51
2023/06/11 04:10:11;;;;;;;3.22;2.83;;;;;;;;;;5024552;28;20348;-51
2023/06/11 04:12:37;;;;;;;3.50;3.05;;;;;;;;;;5025646;28;20298;-51
2023/06/11 04:15:04;;;;;;;3.53;2.33;;;;;;;;;;5023743;28;20267;-51
2023/06/11 04:17:31;;;;;;;2.75;2.35;;;;;;;;;;5021375;28;20228;-51
2023/06/11 04:19:59;;;;;;;3.70;3.13;;;;;;;;;;5026786;28;20664;-52
2023/06/11 04:22:25;;;;;;;3.47;2.30;;;;;;;;;;5027901;28;20237;-52
2023/06/11 04:24:53;;;;;;;3.47;2.55;;;;;;;;;;5025959;28;20232;-53
2023/06/11 04:27:20;;;;;;;3.67;2.70;;;;;;;;;;5028539;28;20243;-52
2023/06/11 04:29:48;;;;;;;4.70;2.40;;;;;;;;;;5028750;28;20280;-52
2023/06/11 04:32:16;;;;;;;7.30;3.13;;;;;;;;;;5026500;28;20229;-52
2023/06/11 04:34:43;;;;;;;4.82;3.20;;;;;;;;;;5024127;28;20270;-52
2023/06/11 04:37:11;;;;;;;3.70;2.60;;;;;;;;;;5010341;28;20283;-52
2023/06/11 04:39:38;;;;;;;2.95;2.75;;;;;;;;;;5023537;28;20312;-52
2023/06/11 04:42:05;;;;;;;3.03;2.60;;;;;;;;;;5023674;28;20254;-51
2023/06/11 04:44:32;;;;;;;3.75;2.90;;;;;;;;;;5022315;28;20238;-52
2023/06/11 04:46:58;;;;;;;4.55;2.88;;;;;;;;;;5023678;28;20232;-51
2023/06/11 04:49:27;;;;;;;8.50;2.97;;;;;;;;;;5012930;28;20229;-52
2023/06/11 04:51:53;;;;;;;3.47;2.63;;;;;;;;;;5011342;28;20519;-52
2023/06/11 04:54:22;;;;;;;6.28;2.58;;;;;;;;;;5033641;28;20231;-52
2023/06/11 04:56:49;;;;;;;2.72;2.47;;;;;;;;;;5017189;28;20312;-52
2023/06/11 04:59:15;;;;;;;5.63;3.53;;;;;;;;;;5012476;28;20233;-50
2023/06/11 05:01:46;;;;;;;3.25;2.92;;;;;;;;;;5028174;28;20232;-51
2023/06/11 05:04:13;;;;;;;2.60;2.40;;;;;;;;;;5011229;28;20233;-53
2023/06/11 05:06:44;;;;;;;3.47;2.55;;;;;;;;;;5018920;28;20236;-52
2023/06/11 05:09:11;;;;;;;2.50;2.30;;;;;;;;;;5024089;28;20232;-51
2023/06/11 05:11:39;;;;;;;3.83;2.55;;;;;;;;;;5023098;28;20323;-53
2023/06/11 05:14:06;;;;;;;5.53;2.25;;;;;;;;;;5019653;28;20237;-51
2023/06/11 05:16:34;;;;;;;2.55;2.35;;;;;;;;;;5031659;28;20260;-53
2023/06/11 05:19:01;;;;;;;4.68;2.63;;;;;;;;;;5023794;28;20239;-52
2023/06/11 05:21:27;;;;;;;8.88;3.08;;;;;;;;;;5019477;28;20283;-51
2023/06/11 05:23:56;;;;;;;6.97;2.35;;;;;;;;;;5024868;28;20323;-51
2023/06/11 05:26:31;;;;;;;3.50;2.40;;;;;;;;;;5024783;28;20232;-54
2023/06/11 05:28:59;;;;;;;3.28;2.33;;;;;;;;;;5023453;28;20366;-51
2023/06/11 05:31:26;;;;;;;3.10;2.60;;;;;;;;;;5021603;28;20321;-53
2023/06/11 05:33:52;;;;;;;4.32;2.70;;;;;;;;;;5024117;28;20240;-53
2023/06/11 05:36:20;;;;;;;3.40;2.92;;;;;;;;;;5021835;28;20240;-52
2023/06/11 05:38:47;;;;;;;3.33;2.72;;;;;;;;;;5024714;28;20611;-53
2023/06/11 05:41:14;;;;;;;13.25;3.22;;;;;;;;;;5022941;28;20895;-50
2023/06/11 05:43:41;;;;;;;4.25;2.95;;;;;;;;;;5009459;28;20556;-52
2023/06/11 05:46:09;;;;;;;7.68;2.60;;;;;;;;;;5013263;28;20247;-53
2023/06/11 05:48:35;;;;;;;3.00;2.70;;;;;;;;;;5004546;28;20237;-52
2023/06/11 05:51:02;;;;;;;8.18;2.45;;;;;;;;;;5021417;28;20229;-51
2023/06/11 05:53:29;;;;;;;2.45;2.25;;;;;;;;;;5023208;28;20240;-51
2023/06/11 05:55:55;;;;;;;10.90;3.47;;;;;;;;;;5023574;28;20240;-52
2023/06/11 05:58:22;;;;;;;2.60;2.22;;;;;;;;;;5012420;28;20279;-53
2023/06/11 06:00:50;;;;;;;3.72;2.85;;;;;;;;;;5016837;28;20314;-52
2023/06/11 06:03:18;;;;;;;3.17;2.88;;;;;;;;;;5021798;28;20236;-53
2023/06/11 06:05:44;;;;;;;3.90;2.38;;;;;;;;;;5023947;28;20233;-52
2023/06/11 06:08:11;;;;;;;4.40;3.38;;;;;;;;;;5024322;28;20237;-50
2023/06/11 06:10:37;;;;;;;2.55;2.35;;;;;;;;;;5025997;28;20239;-53
2023/06/11 06:13:04;;;;;;;4.20;3.10;;;;;;;;;;5023926;28;20586;-52
2023/06/11 06:15:31;;;;;;;3.85;3.15;;;;;;;;;;5020461;28;20329;-51
2023/06/11 06:17:57;;;;;;;3.50;2.67;;;;;;;;;;5013117;28;20599;-52
2023/06/11 06:20:25;;;;;;;3.40;2.80;;;;;;;;;;5012977;28;20821;-53
2023/06/11 06:22:52;;;;;;;2.35;2.13;;;;;;;;;;5021389;28;20232;-55
2023/06/11 06:25:18;;;;;;;6.30;3.28;;;;;;;;;;5023974;28;20711;-52
2023/06/11 06:27:45;;;;;;;3.63;2.42;;;;;;;;;;5003299;28;20912;-51
2023/06/11 06:30:12;;;;;;;4.57;2.78;;;;;;;;;;5006001;28;20229;-52
2023/06/11 06:32:39;;;;;;;4.13;3.17;;;;;;;;;;5004066;28;20323;-52
2023/06/11 06:35:07;;;;;;;4.53;2.95;;;;;;;;;;5007292;28;20726;-50
2023/06/11 06:37:34;;;;;;;2.22;2.03;;;;;;;;;;5020395;28;20754;-52
2023/06/11 06:40:01;;;;;;;6.70;2.70;;;;;;;;;;5016166;28;20280;-52
2023/06/11 06:42:28;;;;;;;3.42;2.75;;;;;;;;;;5007653;28;20273;-52
2023/06/11 06:44:54;;;;;;;4.32;2.85;;;;;;;;;;5012919;28;20354;-51
2023/06/11 06:47:21;;;;;;;4.03;2.70;;;;;;;;;;5030763;28;20236;-53
2023/06/11 06:49:47;;;;;;;7.75;2.78;;;;;;;;;;5023237;28;20786;-52
2023/06/11 06:52:14;;;;;;;3.60;3.10;;;;;;;;;;5025878;28;20236;-51
2023/06/11 06:54:42;;;;;;;3.30;2.67;;;;;;;;;;5034982;28;20265;-53
2023/06/11 06:57:09;;;;;;;2.50;2.35;;;;;;;;;;5034538;28;20254;-52
2023/06/11 06:59:36;;;;;;;3.42;2.70;;;;;;;;;;5031714;28;20238;-50
2023/06/11 07:02:03;;;;;;;3.03;2.72;;;;;;;;;;5029993;28;20624;-52
2023/06/11 07:04:29;;;;;;;3.28;2.97;;;;;;;;;;5009959;28;20237;-52
2023/06/11 07:06:56;;;;;;;7.13;3.17;;;;;;;;;;5003910;28;20774;-51
2023/06/11 07:09:22;;;;;;;3.00;2.72;;;;;;;;;;5004954;28;20229;-53
2023/06/11 07:11:52;;;;;;;4.75;3.17;;;;;;;;;;5003333;28;20236;-52
2023/06/11 07:14:19;;;;;;;4.50;2.70;;;;;;;;;;5026829;28;20315;-50
2023/06/11 07:16:45;;;;;;;3.33;2.90;;;;;;;;;;5028145;28;20305;-52
2023/06/11 07:19:12;;;;;;;4.03;2.38;;;;;;;;;;5026087;28;20236;-52
2023/06/11 07:21:39;;;;;;;3.38;3.08;;;;;;;;;;5026455;28;21001;-52
2023/06/11 07:24:07;;;;;;;3.17;2.88;;;;;;;;;;5029011;28;20225;-51
2023/06/11 07:26:33;;;;;;;4.25;2.78;;;;;;;;;;5016525;28;20298;-52
2023/06/11 07:29:02;;;;;;;3.25;2.72;;;;;;;;;;5025862;28;20232;-52
2023/06/11 07:31:29;;;;;;;3.05;2.85;;;;;;;;;;5023423;28;20334;-50
2023/06/11 07:33:55;;;;;;;3.40;3.05;;;;;;;;;;5023750;28;20318;-52
2023/06/11 07:36:22;;;;;;;3.47;3.17;;;;;;;;;;5023808;28;20225;-52
2023/06/11 07:38:48;;;;;;;3.45;3.05;;;;;;;;;;5011819;28;20233;-53
2023/06/11 07:41:15;;;;;;;3.40;2.58;;;;;;;;;;5014498;28;20347;-52
2023/06/11 07:43:41;;;;;;;6.20;2.92;;;;;;;;;;5018152;28;20252;-52
2023/06/11 07:46:09;;;;;;;8.65;3.08;;;;;;;;;;5018008;28;20715;-52
2023/06/11 07:48:35;;;;;;;3.17;2.88;;;;;;;;;;5013692;28;20240;-52
2023/06/11 07:51:02;;;;;;;4.68;2.72;;;;;;;;;;5016459;28;20323;-50
2023/06/11 07:53:28;;;;;;;3.95;2.67;;;;;;;;;;5014093;28;21026;-53
2023/06/11 07:55:56;;;;;;;3.42;3.10;;;;;;;;;;5022112;28;20240;-52
2023/06/11 07:58:23;;;;;;;4.85;3.08;;;;;;;;;;5022474;28;20322;-54
2023/06/11 08:00:50;;;;;;;4.15;3.00;;;;;;;;;;5015437;28;20229;-53
2023/06/11 08:03:18;;;;;;;4.03;2.60;;;;;;;;;;5004851;28;20316;-53
2023/06/11 08:05:44;;;;;;;4.93;3.20;;;;;;;;;;5009387;28;20233;-53
2023/06/11 08:08:11;;;;;;;3.30;3.00;;;;;;;;;;5007400;28;20777;-52
2023/06/11 08:10:38;;;;;;;3.60;2.80;;;;;;;;;;5009581;28;20236;-51
2023/06/11 08:13:05;;;;;;;3.33;2.80;;;;;;;;;;5018612;28;20240;-52
2023/06/11 08:15:32;;;;;;;5.47;3.03;;;;;;;;;;5012998;28;20244;-54
2023/06/11 08:17:59;;;;;;;5.05;2.75;;;;;;;;;;5019348;28;20710;-50
2023/06/11 08:20:27;;;;;;;3.25;2.95;;;;;;;;;;5022803;28;20232;-52
2023/06/11 08:22:54;;;;;;;3.28;3.03;;;;;;;;;;5013004;28;20233;-53
2023/06/11 08:25:20;;;;;;;2.97;2.38;;;;;;;;;;5019504;28;20236;-53
2023/06/11 08:27:47;;;;;;;3.17;2.80;;;;;;;;;;5017707;28;20291;-53
2023/06/11 08:30:14;;;;;;;6.10;3.72;;;;;;;;;;5013648;28;20288;-52
2023/06/11 08:32:40;;;;;;;4.45;3.50;;;;;;;;;;5014863;28;20237;-52
2023/06/11 08:35:07;;;;;;;4.03;3.50;;;;;;;;;;5015511;28;20331;-52
2023/06/11 08:37:37;;;;;;;4.63;3.22;;;;;;;;;;5019243;28;20241;-52
2023/06/11 08:40:04;;;;;;;4.55;3.20;;;;;;;;;;5014711;28;20766;-51
2023/06/11 08:42:31;;;;;;;4.25;3.38;;;;;;;;;;5019470;28;20397;-53
2023/06/11 08:44:57;;;;;;;5.55;3.78;;;;;;;;;;5016526;28;20235;-52
2023/06/11 08:47:26;;;;;;;5.72;3.65;;;;;;;;;;5014743;28;20314;-51
2023/06/11 08:49:54;;;;;;;8.60;3.67;;;;;;;;;;5021879;28;20241;-52
2023/06/11 08:52:22;;;;;;;4.10;3.67;;;;;;;;;;5023357;28;20315;-52
2023/06/11 08:54:49;;;;;;;3.42;3.13;;;;;;;;;;5017486;28;20321;-53
2023/06/11 08:57:16;;;;;;;4.80;3.83;;;;;;;;;;5005031;28;20232;-50
2023/06/11 08:59:42;;;;;;;8.40;3.63;;;;;;;;;;5000096;28;20276;-52
2023/06/11 09:02:09;;;;;;;14.02;4.22;;;;;;;;;;5003045;28;20291;-52
2023/06/11 09:04:35;;;;;;;5.50;3.30;;;;;;;;;;5005587;28;20312;-52
2023/06/11 09:07:02;;;;;;;4.90;3.90;;;;;;;;;;5008989;28;20308;-50
2023/06/11 09:09:28;;;;;;;4.53;3.28;;;;;;;;;;5003389;28;20229;-53
2023/06/11 09:11:56;;;;;;;4.45;3.47;;;;;;;;;;5001839;28;20244;-52
2023/06/11 09:14:22;;;;;;;4.20;3.72;;;;;;;;;;5021028;28;20228;-52
2023/06/11 09:16:49;;;;;;;5.35;3.67;;;;;;;;;;5020464;28;20257;-53
2023/06/11 09:19:16;;;;;;;4.53;4.13;;;;;;;;;;5016713;28;20232;-51
2023/06/11 09:21:48;;;;;;;4.88;4.20;;;;;;;;;;5018514;28;20709;-51
2023/06/11 09:24:15;;;;;;;4.88;3.75;;;;;;;;;;5021768;28;20615;-52
2023/06/11 09:26:48;;;;;;;6.10;3.80;;;;;;;;;;5015775;28;20329;-51
2023/06/11 09:29:16;;;;;;;3.95;3.55;;;;;;;;;;5021582;28;21109;-52
2023/06/11 09:31:43;;;;;;;7.60;3.85;;;;;;;;;;5015873;28;20313;-52
2023/06/11 09:34:12;;;;;;;4.20;3.47;;;;;;;;;;5022945;28;20324;-52
2023/06/11 09:36:39;;;;;;;5.80;4.40;;;;;;;;;;5022550;28;20679;-51
2023/06/11 09:39:05;;;;;;;3.63;3.33;;;;;;;;;;5017659;28;20233;-52
2023/06/11 09:41:33;;;;;;;8.30;4.80;;;;;;;;;;5017963;28;20327;-52
2023/06/11 09:44:01;;;;;;;5.15;3.88;;;;;;;;;;5020204;28;20243;-52
2023/06/11 09:46:28;;;;;;;4.47;3.53;;;;;;;;;;5018102;28;20236;-52
2023/06/11 09:48:55;;;;;;;4.43;4.05;;;;;;;;;;5018185;28;20244;-51
2023/06/11 09:51:23;;;;;;;4.70;4.30;;;;;;;;;;5012958;28;20240;-51
2023/06/11 09:53:51;;;;;;;5.43;3.40;;;;;;;;;;5014469;28;20699;-52
2023/06/11 09:56:18;;;;;;;7.18;4.40;;;;;;;;;;5012799;28;20838;-51
2023/06/11 09:58:47;;;;;;;5.45;4.15;;;;;;;;;;5013652;28;20232;-50
2023/06/11 10:01:14;;;;;;;5.60;4.25;;;;;;;;;;5025746;28;20297;-52
2023/06/11 10:03:42;;;;;;;7.18;4.15;;;;;;;;;;5028464;28;20240;-52
2023/06/11 10:06:12;;;;;;;6.15;4.25;;;;;;;;;;5025373;28;20283;-52
2023/06/11 10:08:39;;;;;;;6.00;3.70;;;;;;;;;;5020050;28;20279;-52
2023/06/11 10:11:05;;;;;;;4.70;4.25;;;;;;;;;;5009636;28;20316;-53
2023/06/11 10:13:32;;;;;;;4.32;3.92;;;;;;;;;;5012991;28;20252;-53
2023/06/11 10:15:59;;;;;;;9.10;4.32;;;;;;;;;;5020695;28;20255;-52
2023/06/11 10:18:26;;;;;;;4.35;3.92;;;;;;;;;;5014662;28;20603;-51
2023/06/11 10:20:55;;;;;;;5.15;4.00;;;;;;;;;;5018271;28;20236;-52
2023/06/11 10:23:22;;;;;;;5.63;3.80;;;;;;;;;;5014106;28;20234;-51
2023/06/11 10:25:55;;;;;;;6.38;4.90;;;;;;;;;;5020746;28;20236;-54
2023/06/11 10:28:23;;;;;;;7.43;4.68;;;;;;;;;;5014213;28;20236;-50
2023/06/11 10:30:53;;;;;;;5.05;4.65;;;;;;;;;;5012534;28;20302;-52
2023/06/11 10:33:19;;;;;;;4.70;4.30;;;;;;;;;;5010566;28;20233;-53
2023/06/11 10:35:47;;;;;;;5.00;4.45;;;;;;;;;;5013323;28;20268;-51
2023/06/11 10:38:16;;;;;;;5.43;4.30;;;;;;;;;;5013600;28;20977;-53
2023/06/11 10:40:43;;;;;;;4.97;4.47;;;;;;;;;;5015197;28;20312;-52
2023/06/11 10:43:16;;;;;;;5.03;4.30;;;;;;;;;;5012539;28;20233;-52
2023/06/11 10:45:43;;;;;;;5.20;4.00;;;;;;;;;;5018206;28;20260;-52
2023/06/11 10:48:11;;;;;;;10.60;4.53;;;;;;;;;;5017328;28;20256;-51
2023/06/11 10:50:37;;;;;;;4.60;4.20;;;;;;;;;;5018859;28;20263;-51
2023/06/11 10:53:09;;;;;;;4.57;4.18;;;;;;;;;;5011951;28;20233;-52
2023/06/11 10:55:42;;;;;;;7.55;4.88;;;;;;;;;;5016891;28;20275;-52
2023/06/11 10:58:09;;;;;;;6.18;4.20;;;;;;;;;;5014459;28;20228;-52
2023/06/11 11:00:37;;;;;;;4.70;4.30;;;;;;;;;;5016304;28;20414;-51
2023/06/11 11:03:05;;;;;;;4.28;3.80;;;;;;;;;;5011585;28;20319;-52
2023/06/11 11:05:32;;;;;;;4.78;4.30;;;;;;;;;;5018312;28;20240;-52
2023/06/11 11:08:00;;;;;;;10.63;4.55;;;;;;;;;;5018656;28;20239;-51
2023/06/11 11:10:27;;;;;;;5.45;4.88;;;;;;;;;;5019851;28;20236;-53
2023/06/11 11:12:55;;;;;;;10.50;5.05;;;;;;;;;;5014903;28;20579;-53
2023/06/11 11:15:21;;;;;;;5.85;5.00;;;;;;;;;;5019360;28;20264;-51
2023/06/11 11:17:49;;;;;;;7.55;5.28;;;;;;;;;;5011197;28;20290;-51
2023/06/11 11:20:17;;;;;;;8.18;5.38;;;;;;;;;;5019208;28;20339;-51
2023/06/11 11:22:48;;;;;;;9.85;5.38;;;;;;;;;;5019418;28;20251;-52
2023/06/11 11:25:15;;;;;;;6.38;4.88;;;;;;;;;;5016102;28;20810;-52
2023/06/11 11:27:43;;;;;;;6.75;4.85;;;;;;;;;;5018811;28;20572;-51
2023/06/11 11:30:11;;;;;;;8.57;5.70;;;;;;;;;;5018629;28;20244;-51
2023/06/11 11:32:39;;;;;;;5.88;5.25;;;;;;;;;;5014218;28;20272;-52
2023/06/11 11:35:07;;;;;;;5.45;4.82;;;;;;;;;;5015151;28;20233;-50
2023/06/11 11:37:34;;;;;;;6.55;5.78;;;;;;;;;;5019747;28;20611;-53
2023/06/11 11:40:01;;;;;;;5.97;5.03;;;;;;;;;;5014248;28;20284;-51
2023/06/11 11:42:27;;;;;;;7.28;4.55;;;;;;;;;;5017637;28;20257;-52
2023/06/11 11:44:54;;;;;;;5.97;4.90;;;;;;;;;;5018392;28;20723;-53
2023/06/11 11:47:23;;;;;;;4.80;4.35;;;;;;;;;;5020959;28;20233;-51
2023/06/11 11:49:53;;;;;;;5.20;4.80;;;;;;;;;;5027352;28;20232;-50
2023/06/11 11:52:20;;;;;;;4.80;4.40;;;;;;;;;;5025577;28;20715;-55
2023/06/11 11:54:47;;;;;;;4.63;4.32;;;;;;;;;;5024989;28;20333;-52
2023/06/11 11:57:14;;;;;;;4.75;4.30;;;;;;;;;;5019979;28;20309;-51
2023/06/11 11:59:41;;;;;;;4.72;4.43;;;;;;;;;;5020137;28;20826;-51
2023/06/11 12:02:08;;;;;;;5.40;4.90;;;;;;;;;;5013703;28;20245;-52
2023/06/11 12:04:37;;;;;;;6.95;4.82;;;;;;;;;;5021573;28;20238;-53
2023/06/11 12:07:04;;;;;;;8.57;5.18;;;;;;;;;;5017271;28;20239;-51
2023/06/11 12:09:31;;;;;;;9.35;5.30;;;;;;;;;;5020185;28;20320;-53
2023/06/11 12:11:57;;;;;;;6.22;4.90;;;;;;;;;;5016269;28;20620;-54
2023/06/11 12:14:24;;;;;;;6.60;4.50;;;;;;;;;;5014190;28;20232;-52
2023/06/11 12:16:50;;;;;;;5.07;4.60;;;;;;;;;;5025253;28;20793;-52
2023/06/11 12:19:18;;;;;;;5.93;5.43;;;;;;;;;;5013858;28;20229;-52
2023/06/11 12:21:45;;;;;;;5.03;4.53;;;;;;;;;;5021259;28;20253;-53
2023/06/11 12:24:14;;;;;;;5.43;4.93;;;;;;;;;;5020915;28;20965;-53
2023/06/11 12:26:42;;;;;;;8.07;4.68;;;;;;;;;;5015079;28;20256;-53
2023/06/11 12:29:09;;;;;;;7.53;5.50;;;;;;;;;;5016983;28;20723;-51
2023/06/11 12:31:35;;;;;;;8.05;5.28;;;;;;;;;;5015377;28;20233;-51
2023/06/11 12:34:02;;;;;;;5.78;5.25;;;;;;;;;;5022716;28;20231;-53
2023/06/11 12:36:28;;;;;;;5.38;4.95;;;;;;;;;;5017611;28;20243;-52
2023/06/11 12:38:56;;;;;;;6.05;5.50;;;;;;;;;;5019735;28;20243;-53
2023/06/11 12:41:22;;;;;;;5.80;5.10;;;;;;;;;;5017437;28;20234;-53
2023/06/11 12:43:48;;;;;;;7.63;4.90;;;;;;;;;;5020347;28;20890;-51
2023/06/11 12:46:15;;;;;;;11.55;5.88;;;;;;;;;;5023179;28;20236;-51
2023/06/11 12:48:41;;;;;;;5.63;5.10;;;;;;;;;;5020224;28;20243;-52
2023/06/11 12:51:08;;;;;;;5.35;4.95;;;;;;;;;;5010365;28;20232;-52
2023/06/11 12:53:34;;;;;;;6.28;5.68;;;;;;;;;;5019162;28;20718;-52
2023/06/11 12:56:02;;;;;;;6.65;5.35;;;;;;;;;;5024657;28;20234;-53
2023/06/11 12:58:29;;;;;;;6.65;5.72;;;;;;;;;;5014147;28;20240;-52
2023/06/11 13:00:56;;;;;;;5.45;5.03;;;;;;;;;;5021974;28;20236;-52
2023/06/11 13:03:22;;;;;;;7.13;6.30;;;;;;;;;;5019327;28;20236;-52
2023/06/11 13:05:48;;;;;;;6.35;5.45;;;;;;;;;;5019584;28;20312;-51
2023/06/11 13:08:15;;;;;;;6.55;5.68;;;;;;;;;;5019051;28;20591;-52
2023/06/11 13:10:41;;;;;;;6.40;5.80;;;;;;;;;;5022406;28;20259;-52
2023/06/11 13:13:09;;;;;;;6.50;5.82;;;;;;;;;;5015989;28;20268;-52
2023/06/11 13:15:35;;;;;;;7.90;6.30;;;;;;;;;;5021569;28;20250;-51
2023/06/11 13:18:02;;;;;;;6.65;5.97;;;;;;;;;;5020063;28;20243;-51
2023/06/11 13:20:29;;;;;;;6.97;6.38;;;;;;;;;;5023272;28;20260;-51
2023/06/11 13:22:56;;;;;;;7.30;6.57;;;;;;;;;;5013522;28;20757;-51
2023/06/11 13:25:22;;;;;;;8.45;6.68;;;;;;;;;;5013276;28;20324;-52
2023/06/11 13:27:49;;;;;;;6.60;6.10;;;;;;;;;;5014098;28;20236;-51
2023/06/11 13:30:17;;;;;;;7.38;6.68;;;;;;;;;;5013250;28;20236;-52
2023/06/11 13:32:44;;;;;;;7.15;6.55;;;;;;;;;;5012054;28;21346;-52
2023/06/11 13:35:10;;;;;;;7.82;7.13;;;;;;;;;;5024701;28;21566;-52
2023/06/11 13:37:37;;;;;;;7.05;6.43;;;;;;;;;;5012147;28;20264;-52
2023/06/11 13:40:04;;;;;;;8.18;7.47;;;;;;;;;;5018109;28;20233;-52
2023/06/11 13:42:31;;;;;;;7.55;6.78;;;;;;;;;;5015352;28;20240;-54
2023/06/11 13:44:59;;;;;;;7.93;6.40;;;;;;;;;;5019958;28;20774;-52
2023/06/11 13:47:28;;;;;;;7.75;7.05;;;;;;;;;;5019420;28;20244;-57
2023/06/11 13:49:54;;;;;;;7.18;6.57;;;;;;;;;;5019959;28;20236;-52
2023/06/11 13:52:23;;;;;;;8.35;7.38;;;;;;;;;;5018933;28;20312;-53
2023/06/11 13:54:50;;;;;;;7.53;6.80;;;;;;;;;;5024573;28;20263;-52
2023/06/11 13:57:16;;;;;;;7.90;7.20;;;;;;;;;;5023228;28;20240;-52
2023/06/11 13:59:43;;;;;;;8.00;7.40;;;;;;;;;;5017173;28;20290;-55
2023/06/11 14:02:09;;;;;;;8.48;7.10;;;;;;;;;;5017314;28;20319;-52
2023/06/11 14:04:37;;;;;;;10.23;8.90;;;;;;;;;;5025852;28;20235;-50
2023/06/11 14:07:04;;;;;;;9.45;7.10;;;;;;;;;;5023973;28;20228;-52
2023/06/11 14:09:30;;;;;;;7.18;6.57;;;;;;;;;;5024674;28;20236;-52
2023/06/11 14:11:57;;;;;;;7.38;6.68;;;;;;;;;;5020860;28;20321;-52
2023/06/11 14:14:24;;;;;;;7.55;6.63;;;;;;;;;;5023287;28;20241;-52
2023/06/11 14:16:51;;;;;;;9.60;7.15;;;;;;;;;;5014082;28;20237;-59
2023/06/11 14:19:17;;;;;;;7.13;6.63;;;;;;;;;;5019033;28;20949;-52
2023/06/11 14:21:45;;;;;;;9.77;7.32;;;;;;;;;;5012928;28;20312;-52
2023/06/11 14:24:11;;;;;;;7.70;6.95;;;;;;;;;;5017642;28;20266;-52
2023/06/11 14:26:37;;;;;;;7.28;6.68;;;;;;;;;;5008198;28;20237;-52
2023/06/11 14:29:05;;;;;;;7.03;6.43;;;;;;;;;;5021570;28;20236;-52
2023/06/11 14:31:32;;;;;;;7.93;7.22;;;;;;;;;;5015175;28;20240;-51
2023/06/11 14:33:58;;;;;;;7.40;6.55;;;;;;;;;;5020056;28;20251;-51
2023/06/11 14:36:24;;;;;;;8.02;6.97;;;;;;;;;;5018275;28;20924;-54
2023/06/11 14:38:52;;;;;;;7.43;6.72;;;;;;;;;;5017733;28;20346;-52
2023/06/11 14:41:19;;;;;;;8.32;7.53;;;;;;;;;;5016379;28;20236;-50
2023/06/11 14:43:45;;;;;;;8.65;6.85;;;;;;;;;;5018268;28;20909;-51